メインページ
METAR-TAF:

METAR-TAF

空港 :

Aoba Island, バヌアツ

緯度: 15-18-24S, 経度: 167-58-02E, 海抜: 51m

METAR: 見つかりません

時間: 06:18 (19:18 UTC)

予報

当レポートは3時間18分前の16:00(UTC)に作成
予報は15日の 18時(UTC)から 16日の 18時(UTC)まで有効
の風 12kt
視程: 8000m
高度2000ftの雲は散在している
高度4000ftの千切れ雲あり
高度1800ftの雲は散在している
高度3800ftの千切れ雲あり
にわか雨

TAF: NVSG 151600Z 1518/1618 10012KT 9999 SCT020 BKN040 INTER 1518/1524 8000 SHRA SCT018 BKN038

4,000以上の空港の気象観測と天気予報(METAR報とTAF報)

利用可能な観測所は地図上に黄色い丸と赤い丸で示す。

丸の上にカーソルを重ねると観測所名を参照できる。

次にクリックすると気象観測と天気予報を参照できる。

マップの切り替え:黒色「×」印の緑ボタンをクリックして拡大、「-」印の緑ボタンをクリックして縮小、緑色の三角印をクリックして隣りの地図に切り替え


METAR-TAF: